Virtual Norwegian is not affiliated with Norwegian Air Shuttle in any way.
If you are looking for the real "Norwegian", or you wish to book Norwegian flights, please visit Norwegian.com


We use cookies to ensure you get the best experience on our website.   ACCEPT

GMMX - RAK - Marrakech (Menara)

General Info Alternate Airport
ICAO: GMMX Elevation: 1545 ft ICAO: GMAD
IATA: RAK Country: Morocco IATA: AGA
City: Marrakech Charts: Log in to view charts City: Al Massira
Name: Menara Hub: No Name Agadir
General Info
ICAO: GMMX
IATA: RAK
City: Marrakech
Name: Menara
Elevation: 1545 ft
Country: Morocco
Charts: Log in to view charts
Hub: No
 
Alternate Airport
ICAO: GMAD
IATA: AGA
City: Al Massira
Name: Agadir

Weather
211100Z VRB03KT 9999 SCT100 29/14 Q1016 NOSIG
Weather
211100Z VRB03KT 9999 SCT100 29/14 Q1016 NOSIG

Runway Info
10
Length ILS/LOC Course
3100 m 109.70 099
28
Length ILS/LOC Heading
3100 m N/A 276

NOTAMs
NOTAMs currently unavailable.
NOTAMs
NOTAMs currently unavailable

Route map
Airport
Airport (hub)